sensor_id;sensor_type;location;lat;lon;timestamp;temperature;humidity
12959;DHT22;6544;51.666;6.634;2022-12-18T00:02:07;-4.60;99.90
12959;DHT22;6544;51.666;6.634;2022-12-18T00:04:36;-4.70;99.90
12959;DHT22;6544;51.666;6.634;2022-12-18T00:07:04;-4.70;99.90
12959;DHT22;6544;51.666;6.634;2022-12-18T00:09:31;-4.70;99.90
12959;DHT22;6544;51.666;6.634;2022-12-18T00:11:58;-4.70;99.90
12959;DHT22;6544;51.666;6.634;2022-12-18T00:14:25;-4.70;99.90
12959;DHT22;6544;51.666;6.634;2022-12-18T00:16:52;-4.70;99.90
12959;DHT22;6544;51.666;6.634;2022-12-18T00:19:19;-4.70;99.90
12959;DHT22;6544;51.666;6.634;2022-12-18T00:21:46;-4.70;99.90
12959;DHT22;6544;51.666;6.634;2022-12-18T00:24:39;-4.70;99.90
12959;DHT22;6544;51.666;6.634;2022-12-18T00:27:06;-4.60;99.90
12959;DHT22;6544;51.666;6.634;2022-12-18T00:29:33;-4.70;99.90
12959;DHT22;6544;51.666;6.634;2022-12-18T00:31:59;-4.70;99.90
12959;DHT22;6544;51.666;6.634;2022-12-18T00:34:26;-4.80;99.90
12959;DHT22;6544;51.666;6.634;2022-12-18T00:36:53;-4.80;99.90
12959;DHT22;6544;51.666;6.634;2022-12-18T00:39:20;-4.80;99.90
12959;DHT22;6544;51.666;6.634;2022-12-18T00:41:48;-4.80;99.90
12959;DHT22;6544;51.666;6.634;2022-12-18T00:44:33;-4.70;99.90
12959;DHT22;6544;51.666;6.634;2022-12-18T00:47:06;-4.80;99.90
12959;DHT22;6544;51.666;6.634;2022-12-18T00:49:33;-4.80;99.90
12959;DHT22;6544;51.666;6.634;2022-12-18T00:51:59;-4.90;99.90
12959;DHT22;6544;51.666;6.634;2022-12-18T00:54:27;-4.90;99.90
12959;DHT22;6544;51.666;6.634;2022-12-18T00:56:55;-5.00;99.90
12959;DHT22;6544;51.666;6.634;2022-12-18T00:59:22;-5.10;99.90
12959;DHT22;6544;51.666;6.634;2022-12-18T01:01:49;-4.90;99.90
12959;DHT22;6544;51.666;6.634;2022-12-18T01:04:15;-4.90;99.90
12959;DHT22;6544;51.666;6.634;2022-12-18T01:06:42;-4.90;99.90
12959;DHT22;6544;51.666;6.634;2022-12-18T01:09:09;-4.90;99.90
12959;DHT22;6544;51.666;6.634;2022-12-18T01:11:36;-4.90;99.90
12959;DHT22;6544;51.666;6.634;2022-12-18T01:14:04;-4.90;99.90
12959;DHT22;6544;51.666;6.634;2022-12-18T01:16:31;-4.90;99.90
12959;DHT22;6544;51.666;6.634;2022-12-18T01:18:58;-4.90;99.90
12959;DHT22;6544;51.666;6.634;2022-12-18T01:21:25;-4.90;99.90
12959;DHT22;6544;51.666;6.634;2022-12-18T01:23:53;-4.80;99.90
12959;DHT22;6544;51.666;6.634;2022-12-18T01:26:20;-4.80;99.90
12959;DHT22;6544;51.666;6.634;2022-12-18T01:28:47;-4.90;99.90
12959;DHT22;6544;51.666;6.634;2022-12-18T01:31:18;-4.90;99.90
12959;DHT22;6544;51.666;6.634;2022-12-18T01:33:48;-5.00;99.90
12959;DHT22;6544;51.666;6.634;2022-12-18T01:36:18;-5.00;99.90
12959;DHT22;6544;51.666;6.634;2022-12-18T01:38:45;-5.10;99.90
12959;DHT22;6544;51.666;6.634;2022-12-18T01:41:13;-5.10;99.90
12959;DHT22;6544;51.666;6.634;2022-12-18T01:43:47;-5.10;99.90
12959;DHT22;6544;51.666;6.634;2022-12-18T01:46:15;-5.20;99.90
12959;DHT22;6544;51.666;6.634;2022-12-18T01:48:44;-5.20;99.90
12959;DHT22;6544;51.666;6.634;2022-12-18T01:51:12;-5.20;99.90
12959;DHT22;6544;51.666;6.634;2022-12-18T01:53:40;-5.30;99.90
12959;DHT22;6544;51.666;6.634;2022-12-18T01:56:08;-5.30;99.90
12959;DHT22;6544;51.666;6.634;2022-12-18T01:58:44;-5.40;99.90
12959;DHT22;6544;51.666;6.634;2022-12-18T02:01:12;-5.40;99.90
12959;DHT22;6544;51.666;6.634;2022-12-18T02:03:42;-5.40;99.90
12959;DHT22;6544;51.666;6.634;2022-12-18T02:06:15;-5.40;99.90
12959;DHT22;6544;51.666;6.634;2022-12-18T02:08:50;-5.30;99.90
12959;DHT22;6544;51.666;6.634;2022-12-18T02:11:27;-5.20;99.90
12959;DHT22;6544;51.666;6.634;2022-12-18T02:14:06;-5.20;99.90
12959;DHT22;6544;51.666;6.634;2022-12-18T02:16:43;-5.30;99.90
12959;DHT22;6544;51.666;6.634;2022-12-18T02:19:27;-5.30;99.90
12959;DHT22;6544;51.666;6.634;2022-12-18T02:22:06;-5.30;99.90
12959;DHT22;6544;51.666;6.634;2022-12-18T02:24:39;-5.30;99.90
12959;DHT22;6544;51.666;6.634;2022-12-18T02:27:10;-5.30;99.90
12959;DHT22;6544;51.666;6.634;2022-12-18T02:29:40;-5.40;99.90
12959;DHT22;6544;51.666;6.634;2022-12-18T02:32:13;-5.40;99.90
12959;DHT22;6544;51.666;6.634;2022-12-18T02:34:43;-5.40;99.90
12959;DHT22;6544;51.666;6.634;2022-12-18T02:37:13;-5.40;99.90
12959;DHT22;6544;51.666;6.634;2022-12-18T02:39:43;-5.40;99.90
12959;DHT22;6544;51.666;6.634;2022-12-18T02:42:12;-5.30;99.90
12959;DHT22;6544;51.666;6.634;2022-12-18T02:44:43;-5.40;99.90
12959;DHT22;6544;51.666;6.634;2022-12-18T02:47:12;-5.40;99.90
12959;DHT22;6544;51.666;6.634;2022-12-18T02:49:49;-5.40;99.90
12959;DHT22;6544;51.666;6.634;2022-12-18T02:52:25;-5.40;99.90
12959;DHT22;6544;51.666;6.634;2022-12-18T02:54:59;-5.40;99.90
12959;DHT22;6544;51.666;6.634;2022-12-18T02:57:34;-5.40;99.90
12959;DHT22;6544;51.666;6.634;2022-12-18T03:00:07;-5.40;99.90
12959;DHT22;6544;51.666;6.634;2022-12-18T03:02:39;-5.40;99.90
12959;DHT22;6544;51.666;6.634;2022-12-18T03:05:12;-5.40;99.90
12959;DHT22;6544;51.666;6.634;2022-12-18T03:07:43;-5.40;99.90
12959;DHT22;6544;51.666;6.634;2022-12-18T03:10:18;-5.40;99.90
12959;DHT22;6544;51.666;6.634;2022-12-18T03:12:51;-5.40;99.90
12959;DHT22;6544;51.666;6.634;2022-12-18T03:15:22;-5.40;99.90
12959;DHT22;6544;51.666;6.634;2022-12-18T03:17:54;-5.50;99.90
12959;DHT22;6544;51.666;6.634;2022-12-18T03:20:25;-5.50;99.90
12959;DHT22;6544;51.666;6.634;2022-12-18T03:22:57;-5.50;99.90
12959;DHT22;6544;51.666;6.634;2022-12-18T03:25:26;-5.60;99.90
12959;DHT22;6544;51.666;6.634;2022-12-18T03:27:57;-5.60;99.90
12959;DHT22;6544;51.666;6.634;2022-12-18T03:30:26;-5.70;99.90
12959;DHT22;6544;51.666;6.634;2022-12-18T03:33:00;-5.70;99.90
12959;DHT22;6544;51.666;6.634;2022-12-18T03:35:30;-5.80;99.90
12959;DHT22;6544;51.666;6.634;2022-12-18T03:37:58;-5.80;99.90
12959;DHT22;6544;51.666;6.634;2022-12-18T03:40:31;-5.80;99.90
12959;DHT22;6544;51.666;6.634;2022-12-18T03:43:05;-5.80;99.90
12959;DHT22;6544;51.666;6.634;2022-12-18T03:45:37;-5.80;99.90
12959;DHT22;6544;51.666;6.634;2022-12-18T03:48:07;-5.70;99.90
12959;DHT22;6544;51.666;6.634;2022-12-18T03:50:41;-5.80;99.90
12959;DHT22;6544;51.666;6.634;2022-12-18T03:53:23;-5.70;99.90
12959;DHT22;6544;51.666;6.634;2022-12-18T03:55:51;-5.70;99.90
12959;DHT22;6544;51.666;6.634;2022-12-18T03:58:24;-5.80;99.90
12959;DHT22;6544;51.666;6.634;2022-12-18T04:00:53;-5.80;99.90
12959;DHT22;6544;51.666;6.634;2022-12-18T04:03:23;-5.80;99.90
12959;DHT22;6544;51.666;6.634;2022-12-18T04:05:52;-5.80;99.90
12959;DHT22;6544;51.666;6.634;2022-12-18T04:08:21;-5.80;99.90
12959;DHT22;6544;51.666;6.634;2022-12-18T04:10:48;-5.80;99.90
12959;DHT22;6544;51.666;6.634;2022-12-18T04:13:23;-5.80;99.90
12959;DHT22;6544;51.666;6.634;2022-12-18T04:15:50;-5.80;99.90
12959;DHT22;6544;51.666;6.634;2022-12-18T04:18:18;-5.80;99.90
12959;DHT22;6544;51.666;6.634;2022-12-18T04:20:45;-5.80;99.90
12959;DHT22;6544;51.666;6.634;2022-12-18T04:23:12;-5.80;99.90
12959;DHT22;6544;51.666;6.634;2022-12-18T04:25:38;-5.80;99.90
12959;DHT22;6544;51.666;6.634;2022-12-18T04:28:06;-5.90;99.90
12959;DHT22;6544;51.666;6.634;2022-12-18T04:30:34;-5.90;99.90
12959;DHT22;6544;51.666;6.634;2022-12-18T04:33:01;-5.90;99.90
12959;DHT22;6544;51.666;6.634;2022-12-18T04:35:28;-6.00;99.90
12959;DHT22;6544;51.666;6.634;2022-12-18T04:37:55;-5.90;99.90
12959;DHT22;6544;51.666;6.634;2022-12-18T04:40:22;-5.90;99.90
12959;DHT22;6544;51.666;6.634;2022-12-18T04:42:49;-5.90;99.90
12959;DHT22;6544;51.666;6.634;2022-12-18T04:45:16;-5.80;99.90
12959;DHT22;6544;51.666;6.634;2022-12-18T04:47:44;-5.80;99.90
12959;DHT22;6544;51.666;6.634;2022-12-18T04:50:11;-5.80;99.90
12959;DHT22;6544;51.666;6.634;2022-12-18T04:52:38;-5.80;99.90
12959;DHT22;6544;51.666;6.634;2022-12-18T04:55:05;-5.90;99.90
12959;DHT22;6544;51.666;6.634;2022-12-18T04:57:33;-5.90;99.90
12959;DHT22;6544;51.666;6.634;2022-12-18T05:00:00;-5.90;99.90
12959;DHT22;6544;51.666;6.634;2022-12-18T05:02:27;-5.90;99.90
12959;DHT22;6544;51.666;6.634;2022-12-18T05:04:55;-5.90;99.90
12959;DHT22;6544;51.666;6.634;2022-12-18T05:07:22;-5.90;99.90
12959;DHT22;6544;51.666;6.634;2022-12-18T05:09:49;-5.90;99.90
12959;DHT22;6544;51.666;6.634;2022-12-18T05:12:15;-5.90;99.90
12959;DHT22;6544;51.666;6.634;2022-12-18T05:14:42;-5.80;99.90
12959;DHT22;6544;51.666;6.634;2022-12-18T05:17:09;-5.80;99.90
12959;DHT22;6544;51.666;6.634;2022-12-18T05:19:36;-5.90;99.90
12959;DHT22;6544;51.666;6.634;2022-12-18T05:22:08;-5.90;99.90
12959;DHT22;6544;51.666;6.634;2022-12-18T05:24:35;-5.80;99.90
12959;DHT22;6544;51.666;6.634;2022-12-18T05:27:02;-5.90;99.90
12959;DHT22;6544;51.666;6.634;2022-12-18T05:29:29;-5.90;99.90
12959;DHT22;6544;51.666;6.634;2022-12-18T05:31:56;-5.90;99.90
12959;DHT22;6544;51.666;6.634;2022-12-18T05:34:23;-5.90;99.90
12959;DHT22;6544;51.666;6.634;2022-12-18T05:36:50;-5.90;99.90
12959;DHT22;6544;51.666;6.634;2022-12-18T05:39:18;-5.80;99.90
12959;DHT22;6544;51.666;6.634;2022-12-18T05:41:45;-5.80;99.90
12959;DHT22;6544;51.666;6.634;2022-12-18T05:44:12;-5.80;99.90
12959;DHT22;6544;51.666;6.634;2022-12-18T05:46:39;-5.80;99.90
12959;DHT22;6544;51.666;6.634;2022-12-18T05:49:08;-5.80;99.90
12959;DHT22;6544;51.666;6.634;2022-12-18T05:51:35;-5.80;99.90
12959;DHT22;6544;51.666;6.634;2022-12-18T05:54:02;-5.80;99.90
12959;DHT22;6544;51.666;6.634;2022-12-18T05:56:31;-5.90;99.90
12959;DHT22;6544;51.666;6.634;2022-12-18T05:58:58;-5.90;99.90
12959;DHT22;6544;51.666;6.634;2022-12-18T06:01:26;-5.90;99.90
12959;DHT22;6544;51.666;6.634;2022-12-18T06:03:53;-6.00;99.90
12959;DHT22;6544;51.666;6.634;2022-12-18T06:06:22;-5.90;99.90
12959;DHT22;6544;51.666;6.634;2022-12-18T06:08:50;-6.00;99.90
12959;DHT22;6544;51.666;6.634;2022-12-18T06:11:19;-6.00;99.90
12959;DHT22;6544;51.666;6.634;2022-12-18T06:13:49;-5.90;99.90
12959;DHT22;6544;51.666;6.634;2022-12-18T06:16:17;-6.00;99.90
12959;DHT22;6544;51.666;6.634;2022-12-18T06:18:44;-6.00;99.90
12959;DHT22;6544;51.666;6.634;2022-12-18T06:21:12;-6.00;99.90
12959;DHT22;6544;51.666;6.634;2022-12-18T06:23:38;-6.10;99.90
12959;DHT22;6544;51.666;6.634;2022-12-18T06:26:06;-6.10;99.90
12959;DHT22;6544;51.666;6.634;2022-12-18T06:28:33;-6.10;99.90
12959;DHT22;6544;51.666;6.634;2022-12-18T06:31:02;-6.10;99.90
12959;DHT22;6544;51.666;6.634;2022-12-18T06:33:30;-6.10;99.90
12959;DHT22;6544;51.666;6.634;2022-12-18T06:36:00;-6.10;99.90
12959;DHT22;6544;51.666;6.634;2022-12-18T06:38:27;-6.10;99.90
12959;DHT22;6544;51.666;6.634;2022-12-18T06:40:54;-6.10;99.90
12959;DHT22;6544;51.666;6.634;2022-12-18T06:43:21;-6.10;99.90
12959;DHT22;6544;51.666;6.634;2022-12-18T06:45:48;-6.10;99.90
12959;DHT22;6544;51.666;6.634;2022-12-18T06:48:19;-6.10;99.90
12959;DHT22;6544;51.666;6.634;2022-12-18T06:50:46;-6.10;99.90
12959;DHT22;6544;51.666;6.634;2022-12-18T06:53:14;-6.20;99.90
12959;DHT22;6544;51.666;6.634;2022-12-18T06:55:41;-6.20;99.90
12959;DHT22;6544;51.666;6.634;2022-12-18T06:58:08;-6.10;99.90
12959;DHT22;6544;51.666;6.634;2022-12-18T07:00:35;-6.10;99.90
12959;DHT22;6544;51.666;6.634;2022-12-18T07:03:02;-6.10;99.90
12959;DHT22;6544;51.666;6.634;2022-12-18T07:05:30;-6.10;99.90
12959;DHT22;6544;51.666;6.634;2022-12-18T07:07:57;-6.10;99.90
12959;DHT22;6544;51.666;6.634;2022-12-18T07:10:24;-6.10;99.90
12959;DHT22;6544;51.666;6.634;2022-12-18T07:12:52;-6.10;99.90
12959;DHT22;6544;51.666;6.634;2022-12-18T07:15:19;-6.10;99.90
12959;DHT22;6544;51.666;6.634;2022-12-18T07:17:45;-6.10;99.90
12959;DHT22;6544;51.666;6.634;2022-12-18T07:20:12;-6.10;99.90
12959;DHT22;6544;51.666;6.634;2022-12-18T07:22:41;-6.10;99.90
12959;DHT22;6544;51.666;6.634;2022-12-18T07:25:08;-6.10;99.90
12959;DHT22;6544;51.666;6.634;2022-12-18T07:27:35;-6.10;99.90
12959;DHT22;6544;51.666;6.634;2022-12-18T07:30:02;-6.10;99.90
12959;DHT22;6544;51.666;6.634;2022-12-18T07:32:30;-6.10;99.90
12959;DHT22;6544;51.666;6.634;2022-12-18T07:34:57;-6.10;99.90
12959;DHT22;6544;51.666;6.634;2022-12-18T07:37:24;-6.00;99.90
12959;DHT22;6544;51.666;6.634;2022-12-18T07:39:52;-6.10;99.90
12959;DHT22;6544;51.666;6.634;2022-12-18T07:42:19;-6.00;99.90
12959;DHT22;6544;51.666;6.634;2022-12-18T07:44:58;-6.00;99.90
12959;DHT22;6544;51.666;6.634;2022-12-18T07:47:28;-6.00;99.90
12959;DHT22;6544;51.666;6.634;2022-12-18T07:49:58;-6.00;99.90
12959;DHT22;6544;51.666;6.634;2022-12-18T07:52:25;-5.90;99.90
12959;DHT22;6544;51.666;6.634;2022-12-18T07:54:53;-5.90;99.90
12959;DHT22;6544;51.666;6.634;2022-12-18T07:57:21;-5.90;99.90
12959;DHT22;6544;51.666;6.634;2022-12-18T07:59:48;-5.90;99.90
12959;DHT22;6544;51.666;6.634;2022-12-18T08:02:15;-5.90;99.90
12959;DHT22;6544;51.666;6.634;2022-12-18T08:04:41;-5.90;99.90
12959;DHT22;6544;51.666;6.634;2022-12-18T08:07:08;-5.90;99.90
12959;DHT22;6544;51.666;6.634;2022-12-18T08:09:35;-5.80;99.90
12959;DHT22;6544;51.666;6.634;2022-12-18T08:12:04;-5.90;99.90
12959;DHT22;6544;51.666;6.634;2022-12-18T08:14:31;-5.80;1.00
12959;DHT22;6544;51.666;6.634;2022-12-18T08:16:58;-5.80;1.00
12959;DHT22;6544;51.666;6.634;2022-12-18T08:19:25;-5.80;1.00
12959;DHT22;6544;51.666;6.634;2022-12-18T08:21:52;-5.80;1.00
12959;DHT22;6544;51.666;6.634;2022-12-18T08:24:19;-5.80;1.00
12959;DHT22;6544;51.666;6.634;2022-12-18T08:26:46;-5.70;1.00
12959;DHT22;6544;51.666;6.634;2022-12-18T08:29:15;-5.70;1.00
12959;DHT22;6544;51.666;6.634;2022-12-18T08:31:41;-5.70;1.00
12959;DHT22;6544;51.666;6.634;2022-12-18T08:34:08;-5.80;1.00
12959;DHT22;6544;51.666;6.634;2022-12-18T08:36:35;-5.70;1.00
12959;DHT22;6544;51.666;6.634;2022-12-18T08:39:02;-5.70;1.00
12959;DHT22;6544;51.666;6.634;2022-12-18T08:41:29;-5.60;1.00
12959;DHT22;6544;51.666;6.634;2022-12-18T08:43:56;-5.60;1.00
12959;DHT22;6544;51.666;6.634;2022-12-18T08:46:42;-5.60;1.00
12959;DHT22;6544;51.666;6.634;2022-12-18T08:49:11;-5.50;1.00
12959;DHT22;6544;51.666;6.634;2022-12-18T08:51:38;-5.50;1.00
12959;DHT22;6544;51.666;6.634;2022-12-18T08:54:32;-5.40;1.00
12959;DHT22;6544;51.666;6.634;2022-12-18T08:57:16;-5.30;1.00
12959;DHT22;6544;51.666;6.634;2022-12-18T08:59:45;-5.20;1.00
12959;DHT22;6544;51.666;6.634;2022-12-18T09:02:13;-5.20;1.00
12959;DHT22;6544;51.666;6.634;2022-12-18T09:04:40;-5.10;1.00
12959;DHT22;6544;51.666;6.634;2022-12-18T09:07:07;-5.00;1.00
12959;DHT22;6544;51.666;6.634;2022-12-18T09:09:34;-4.90;1.00
12959;DHT22;6544;51.666;6.634;2022-12-18T09:12:03;-4.80;1.00
12959;DHT22;6544;51.666;6.634;2022-12-18T09:14:30;-4.70;1.00
12959;DHT22;6544;51.666;6.634;2022-12-18T09:16:56;-4.60;1.00
12959;DHT22;6544;51.666;6.634;2022-12-18T09:19:25;-4.60;1.00
12959;DHT22;6544;51.666;6.634;2022-12-18T09:21:52;-4.50;21.60
12959;DHT22;6544;51.666;6.634;2022-12-18T09:24:19;-4.40;46.00
12959;DHT22;6544;51.666;6.634;2022-12-18T09:26:48;-4.30;60.40
12959;DHT22;6544;51.666;6.634;2022-12-18T09:29:15;-4.20;97.50
12959;DHT22;6544;51.666;6.634;2022-12-18T09:31:42;-4.10;99.40
12959;DHT22;6544;51.666;6.634;2022-12-18T09:34:09;-4.00;99.90
12959;DHT22;6544;51.666;6.634;2022-12-18T09:36:38;-3.90;98.30
12959;DHT22;6544;51.666;6.634;2022-12-18T09:39:05;-3.80;86.20
12959;DHT22;6544;51.666;6.634;2022-12-18T09:41:39;-3.70;72.00
12959;DHT22;6544;51.666;6.634;2022-12-18T09:44:16;-3.60;59.00
12959;DHT22;6544;51.666;6.634;2022-12-18T09:46:47;-3.50;21.30
12959;DHT22;6544;51.666;6.634;2022-12-18T09:49:18;-3.50;1.00
12959;DHT22;6544;51.666;6.634;2022-12-18T09:51:51;-3.40;14.30
12959;DHT22;6544;51.666;6.634;2022-12-18T09:54:23;-3.30;17.20
12959;DHT22;6544;51.666;6.634;2022-12-18T09:56:52;-3.30;1.00
12959;DHT22;6544;51.666;6.634;2022-12-18T09:59:23;-3.30;1.00
12959;DHT22;6544;51.666;6.634;2022-12-18T10:01:50;-3.20;1.00
12959;DHT22;6544;51.666;6.634;2022-12-18T10:04:17;-3.20;1.00
12959;DHT22;6544;51.666;6.634;2022-12-18T10:06:52;-3.10;1.00
12959;DHT22;6544;51.666;6.634;2022-12-18T10:09:28;-3.10;1.00
12959;DHT22;6544;51.666;6.634;2022-12-18T10:12:04;-3.00;1.00
12959;DHT22;6544;51.666;6.634;2022-12-18T10:14:39;-2.90;1.00
12959;DHT22;6544;51.666;6.634;2022-12-18T10:17:16;-2.80;1.00
12959;DHT22;6544;51.666;6.634;2022-12-18T10:19:51;-2.70;1.00
12959;DHT22;6544;51.666;6.634;2022-12-18T10:25:19;-2.60;1.00
12959;DHT22;6544;51.666;6.634;2022-12-18T10:28:12;-2.60;1.00
12959;DHT22;6544;51.666;6.634;2022-12-18T10:30:42;-2.60;1.00
12959;DHT22;6544;51.666;6.634;2022-12-18T10:33:11;-2.50;1.00
12959;DHT22;6544;51.666;6.634;2022-12-18T10:35:42;-2.50;1.00
12959;DHT22;6544;51.666;6.634;2022-12-18T10:38:23;-2.50;1.00
12959;DHT22;6544;51.666;6.634;2022-12-18T10:40:56;-2.50;1.00
12959;DHT22;6544;51.666;6.634;2022-12-18T10:43:25;-2.40;1.00
12959;DHT22;6544;51.666;6.634;2022-12-18T10:46:08;-2.40;1.00
12959;DHT22;6544;51.666;6.634;2022-12-18T10:48:47;-2.30;1.00
12959;DHT22;6544;51.666;6.634;2022-12-18T10:51:20;-2.30;1.00
12959;DHT22;6544;51.666;6.634;2022-12-18T10:53:56;-2.30;1.00
12959;DHT22;6544;51.666;6.634;2022-12-18T10:56:26;-2.20;1.00
12959;DHT22;6544;51.666;6.634;2022-12-18T10:58:58;-2.20;1.00
12959;DHT22;6544;51.666;6.634;2022-12-18T11:01:26;-2.00;1.00
12959;DHT22;6544;51.666;6.634;2022-12-18T11:04:01;-2.00;1.00
12959;DHT22;6544;51.666;6.634;2022-12-18T11:06:29;-1.90;1.00
12959;DHT22;6544;51.666;6.634;2022-12-18T11:09:01;-1.90;1.00
12959;DHT22;6544;51.666;6.634;2022-12-18T11:11:29;-1.80;1.00
12959;DHT22;6544;51.666;6.634;2022-12-18T11:14:01;-1.80;1.00
12959;DHT22;6544;51.666;6.634;2022-12-18T11:16:35;-1.80;1.00
12959;DHT22;6544;51.666;6.634;2022-12-18T11:19:23;-1.80;1.00
12959;DHT22;6544;51.666;6.634;2022-12-18T11:21:52;-1.60;1.00
12959;DHT22;6544;51.666;6.634;2022-12-18T11:24:24;-1.60;1.00
12959;DHT22;6544;51.666;6.634;2022-12-18T11:26:54;-1.50;1.00
12959;DHT22;6544;51.666;6.634;2022-12-18T11:29:27;-1.50;1.00
12959;DHT22;6544;51.666;6.634;2022-12-18T11:35:15;-1.40;1.00
12959;DHT22;6544;51.666;6.634;2022-12-18T11:37:56;-1.30;1.00
12959;DHT22;6544;51.666;6.634;2022-12-18T11:40:45;-1.30;1.00
12959;DHT22;6544;51.666;6.634;2022-12-18T11:43:26;-1.30;1.00
12959;DHT22;6544;51.666;6.634;2022-12-18T11:46:01;-1.30;1.00
12959;DHT22;6544;51.666;6.634;2022-12-18T11:48:45;-1.20;1.00
12959;DHT22;6544;51.666;6.634;2022-12-18T11:51:32;-1.20;1.00
12959;DHT22;6544;51.666;6.634;2022-12-18T11:54:11;-1.20;1.00
12959;DHT22;6544;51.666;6.634;2022-12-18T11:59:44;-1.10;1.00
12959;DHT22;6544;51.666;6.634;2022-12-18T12:02:29;-1.00;1.00
12959;DHT22;6544;51.666;6.634;2022-12-18T12:05:21;-1.00;1.00
12959;DHT22;6544;51.666;6.634;2022-12-18T12:08:00;-0.90;1.00
12959;DHT22;6544;51.666;6.634;2022-12-18T12:10:49;-0.90;1.00
12959;DHT22;6544;51.666;6.634;2022-12-18T12:13:27;-0.80;1.00
12959;DHT22;6544;51.666;6.634;2022-12-18T12:16:10;-0.80;1.00
12959;DHT22;6544;51.666;6.634;2022-12-18T12:19:15;-0.80;1.00
12959;DHT22;6544;51.666;6.634;2022-12-18T12:21:49;-0.80;1.00
12959;DHT22;6544;51.666;6.634;2022-12-18T12:24:49;-0.80;1.00
12959;DHT22;6544;51.666;6.634;2022-12-18T12:27:34;-0.90;1.00
12959;DHT22;6544;51.666;6.634;2022-12-18T12:30:41;-0.90;1.00
12959;DHT22;6544;51.666;6.634;2022-12-18T12:33:23;-0.80;1.00
12959;DHT22;6544;51.666;6.634;2022-12-18T12:36:07;-0.70;1.00
12959;DHT22;6544;51.666;6.634;2022-12-18T12:38:41;-0.70;1.00
12959;DHT22;6544;51.666;6.634;2022-12-18T13:13:59;-0.20;1.00
12959;DHT22;6544;51.666;6.634;2022-12-18T13:16:27;-0.20;1.00
12959;DHT22;6544;51.666;6.634;2022-12-18T13:18:56;-0.20;1.00
12959;DHT22;6544;51.666;6.634;2022-12-18T13:21:27;-0.20;1.00
12959;DHT22;6544;51.666;6.634;2022-12-18T13:24:14;-0.10;1.00
12959;DHT22;6544;51.666;6.634;2022-12-18T13:26:42;-0.10;1.00
12959;DHT22;6544;51.666;6.634;2022-12-18T13:29:10;-0.10;1.00
12959;DHT22;6544;51.666;6.634;2022-12-18T13:32:22;-0.10;1.00
12959;DHT22;6544;51.666;6.634;2022-12-18T13:37:57;0.00;1.00
12959;DHT22;6544;51.666;6.634;2022-12-18T13:40:55;0.00;1.00
12959;DHT22;6544;51.666;6.634;2022-12-18T13:43:40;0.10;1.00
12959;DHT22;6544;51.666;6.634;2022-12-18T13:46:21;0.10;1.00
12959;DHT22;6544;51.666;6.634;2022-12-18T13:48:52;0.10;1.00
12959;DHT22;6544;51.666;6.634;2022-12-18T13:51:21;0.20;1.00
12959;DHT22;6544;51.666;6.634;2022-12-18T13:53:51;0.20;1.00
12959;DHT22;6544;51.666;6.634;2022-12-18T13:56:22;0.20;1.00
12959;DHT22;6544;51.666;6.634;2022-12-18T13:59:14;0.20;1.00
12959;DHT22;6544;51.666;6.634;2022-12-18T14:01:48;0.20;99.90
12959;DHT22;6544;51.666;6.634;2022-12-18T14:04:24;0.30;99.90
12959;DHT22;6544;51.666;6.634;2022-12-18T14:06:55;0.30;99.90
12959;DHT22;6544;51.666;6.634;2022-12-18T14:09:26;0.40;99.90
12959;DHT22;6544;51.666;6.634;2022-12-18T14:11:54;0.50;99.90
12959;DHT22;6544;51.666;6.634;2022-12-18T14:14:44;0.60;99.90
12959;DHT22;6544;51.666;6.634;2022-12-18T14:17:15;0.60;99.90
12959;DHT22;6544;51.666;6.634;2022-12-18T14:19:43;0.70;87.30
12959;DHT22;6544;51.666;6.634;2022-12-18T14:22:15;0.70;95.90
12959;DHT22;6544;51.666;6.634;2022-12-18T14:24:43;0.80;99.90
12959;DHT22;6544;51.666;6.634;2022-12-18T14:27:21;0.80;92.30
12959;DHT22;6544;51.666;6.634;2022-12-18T14:29:49;0.80;62.00
12959;DHT22;6544;51.666;6.634;2022-12-18T14:32:18;0.90;44.90
12959;DHT22;6544;51.666;6.634;2022-12-18T14:34:47;0.90;41.40
12959;DHT22;6544;51.666;6.634;2022-12-18T14:37:16;0.90;42.50
12959;DHT22;6544;51.666;6.634;2022-12-18T14:39:53;0.90;45.50
12959;DHT22;6544;51.666;6.634;2022-12-18T14:42:20;0.90;49.90
12959;DHT22;6544;51.666;6.634;2022-12-18T14:44:49;1.00;28.20
12959;DHT22;6544;51.666;6.634;2022-12-18T14:47:18;1.00;35.70
12959;DHT22;6544;51.666;6.634;2022-12-18T14:49:45;1.00;21.80
12959;DHT22;6544;51.666;6.634;2022-12-18T14:52:21;1.00;14.90
12959;DHT22;6544;51.666;6.634;2022-12-18T14:54:49;1.10;19.20
12959;DHT22;6544;51.666;6.634;2022-12-18T14:57:21;1.10;14.60
12959;DHT22;6544;51.666;6.634;2022-12-18T14:59:49;1.10;18.20
12959;DHT22;6544;51.666;6.634;2022-12-18T15:02:21;1.10;15.30
12959;DHT22;6544;51.666;6.634;2022-12-18T15:04:59;1.10;12.90
12959;DHT22;6544;51.666;6.634;2022-12-18T15:07:27;1.10;11.10
12959;DHT22;6544;51.666;6.634;2022-12-18T15:10:09;1.10;15.30
12959;DHT22;6544;51.666;6.634;2022-12-18T15:12:39;1.10;15.10
12959;DHT22;6544;51.666;6.634;2022-12-18T15:18:13;1.10;2.60
12959;DHT22;6544;51.666;6.634;2022-12-18T15:20:44;1.10;5.00
12959;DHT22;6544;51.666;6.634;2022-12-18T15:23:19;1.10;12.20
12959;DHT22;6544;51.666;6.634;2022-12-18T15:25:48;1.10;1.00
12959;DHT22;6544;51.666;6.634;2022-12-18T15:28:19;1.10;1.00
12959;DHT22;6544;51.666;6.634;2022-12-18T15:30:59;1.10;1.00
12959;DHT22;6544;51.666;6.634;2022-12-18T15:33:31;1.10;1.00
12959;DHT22;6544;51.666;6.634;2022-12-18T15:35:59;1.10;1.00
12959;DHT22;6544;51.666;6.634;2022-12-18T15:38:27;1.10;1.00
12959;DHT22;6544;51.666;6.634;2022-12-18T15:40:54;1.10;1.00
12959;DHT22;6544;51.666;6.634;2022-12-18T15:43:22;1.10;1.00
12959;DHT22;6544;51.666;6.634;2022-12-18T15:46:02;1.10;1.00
12959;DHT22;6544;51.666;6.634;2022-12-18T15:48:32;1.10;1.00
12959;DHT22;6544;51.666;6.634;2022-12-18T15:51:00;1.10;6.70
12959;DHT22;6544;51.666;6.634;2022-12-18T15:53:30;1.20;9.90
12959;DHT22;6544;51.666;6.634;2022-12-18T15:55:58;1.20;10.40
12959;DHT22;6544;51.666;6.634;2022-12-18T15:58:42;1.20;23.20
12959;DHT22;6544;51.666;6.634;2022-12-18T16:01:10;1.20;45.90
12959;DHT22;6544;51.666;6.634;2022-12-18T16:03:38;1.10;26.40
12959;DHT22;6544;51.666;6.634;2022-12-18T16:06:06;1.10;19.50
12959;DHT22;6544;51.666;6.634;2022-12-18T16:08:32;1.10;30.40
12959;DHT22;6544;51.666;6.634;2022-12-18T16:11:00;1.10;29.80
12959;DHT22;6544;51.666;6.634;2022-12-18T16:13:27;1.00;24.70
12959;DHT22;6544;51.666;6.634;2022-12-18T16:15:54;1.00;16.60
12959;DHT22;6544;51.666;6.634;2022-12-18T16:18:21;1.00;35.40
12959;DHT22;6544;51.666;6.634;2022-12-18T16:20:50;1.00;31.80
12959;DHT22;6544;51.666;6.634;2022-12-18T16:23:17;1.00;35.70
12959;DHT22;6544;51.666;6.634;2022-12-18T16:25:44;1.00;37.30
12959;DHT22;6544;51.666;6.634;2022-12-18T16:28:11;0.90;29.80
12959;DHT22;6544;51.666;6.634;2022-12-18T16:30:37;1.00;48.50
12959;DHT22;6544;51.666;6.634;2022-12-18T16:33:05;0.90;29.80
12959;DHT22;6544;51.666;6.634;2022-12-18T16:35:32;0.90;32.50
12959;DHT22;6544;51.666;6.634;2022-12-18T16:38:01;0.90;28.80
12959;DHT22;6544;51.666;6.634;2022-12-18T16:40:28;0.80;34.70
12959;DHT22;6544;51.666;6.634;2022-12-18T16:42:58;0.80;37.10
12959;DHT22;6544;51.666;6.634;2022-12-18T16:45:25;0.80;55.80
12959;DHT22;6544;51.666;6.634;2022-12-18T16:47:58;0.80;43.00
12959;DHT22;6544;51.666;6.634;2022-12-18T16:50:25;0.80;52.90
12959;DHT22;6544;51.666;6.634;2022-12-18T16:52:52;0.70;59.80
12959;DHT22;6544;51.666;6.634;2022-12-18T16:55:20;0.80;75.30
12959;DHT22;6544;51.666;6.634;2022-12-18T16:57:47;0.70;81.20
12959;DHT22;6544;51.666;6.634;2022-12-18T17:00:15;0.70;83.60
12959;DHT22;6544;51.666;6.634;2022-12-18T17:02:42;0.80;73.60
12959;DHT22;6544;51.666;6.634;2022-12-18T17:05:09;0.80;69.10
12959;DHT22;6544;51.666;6.634;2022-12-18T17:07:36;0.70;93.40